Baugh, Oklahoma
Current Conditions -  °F | °C
As of 1:35 PM on Friday 28 Nov 2014 (Local Time) from KOWP Reporting Station
Clear Clear  
Wind Chill: 66°   Ceiling: Unl
Heat Index: 66°   Visibility: 10mi
Dew Point: 33°   Wind: 14mph
Humidity: 29%   Direction: 180°S
Pressure: 29.94"   Gusts: 21mph
Location:  36.248°N, 96.4789°W
Report Text: KOWP 281935Z AUTO 18012G18KT 10SM CLR 19/01 A2994 RMK AO2 T01890006
Loading
Personal Weather Stations






























Interactive Weather Map New forecast layout! Learn more

10-Day Weather Forecast

Advertisements
Track Severe Weather on mobile